DTTJ/DJE METAR and TAF weather

Enter ICAO airport designator
Station Type Date Time Source
DTTJ METAR 2018/10/21 04:00 UTC NOAA

DTTJ 210400Z 10001KT 7000 SCT020 22/20 Q1017 NOSIG


Station Type Date Time Source
DTTJ Decoded METAR 2018/10/21 04:00 UTC NOAA

Djerba Mellita, Tunisia (DTTJ) 33-52N 010-46E 4M
Oct 21, 2018 - 12:00 AM EDT / 2018.10.21 0400 UTC
Wind: from the E (100 degrees) at 1 MPH (1 KT):0
Visibility: 4 mile(s):0
Sky conditions: partly cloudy
Temperature: 71 F (22 C)
Dew Point: 68 F (20 C)
Relative Humidity: 88%
Pressure (altimeter): 30.03 in. Hg (1017 hPa)
ob: DTTJ 210400Z 10001KT 7000 SCT020 22/20 Q1017 NOSIG
cycle: 4

Station Type Date Time Source
DTTJ TAF 2018/10/20 18:42 UTC NOAA

TAF DTTJ 201700Z 2018/2118 04006KT 9999 SCT020 PROB40
TEMPO 2100/2112 -TSRA FEW023CB


Example: see airport list